Time,TemperatureF,DewpointF,PressureIn,WindDirection,WindDirectionDegrees,WindSpeedMPH,WindSpeedGustMPH,Humidity,HourlyPrecipIn,Conditions,Clouds,dailyrainin,SoftwareType,DateUTC
2013-09-16 00:05:00,83.2,83.2,29.93,NE,42,7.0,8.0,100,0.00,,,0.00,Wunderground v.1.15,2013-09-16 04:05:00,
2013-09-16 00:10:00,83.2,83.2,29.93,ENE,71,6.0,6.0,100,0.00,,,0.00,Wunderground v.1.15,2013-09-16 04:10:00,
2013-09-16 00:15:00,83.2,83.2,29.93,ENE,65,7.0,7.0,100,0.00,,,0.00,Wunderground v.1.15,2013-09-16 04:15:00,
2013-09-16 00:25:00,83.4,83.4,29.93,ENE,71,6.0,7.0,100,0.00,,,0.00,Wunderground v.1.15,2013-09-16 04:25:00,
2013-09-16 00:35:00,83.2,83.2,29.92,ENE,73,7.0,7.0,100,0.00,,,0.00,Wunderground v.1.15,2013-09-16 04:35:00,
2013-09-16 00:40:00,83.6,83.6,29.92,ENE,59,8.0,10.0,100,0.00,,,0.00,Wunderground v.1.15,2013-09-16 04:40:00,
2013-09-16 00:50:00,83.4,83.4,29.92,NE,41,9.0,9.0,100,0.00,,,0.00,Wunderground v.1.15,2013-09-16 04:50:00,
2013-09-16 00:55:00,83.2,83.2,29.92,NE,42,7.0,12.0,100,0.00,,,0.00,Wunderground v.1.15,2013-09-16 04:55:00,
2013-09-16 01:05:00,83.2,83.2,29.91,ENE,68,6.0,9.0,100,0.00,,,0.00,Wunderground v.1.15,2013-09-16 05:05:00,
2013-09-16 01:15:00,83.4,83.4,29.91,ENE,61,7.0,8.0,100,0.00,,,0.00,Wunderground v.1.15,2013-09-16 05:15:00,
2013-09-16 01:20:00,83.2,83.2,29.91,NE,49,7.0,7.0,100,0.00,,,0.00,Wunderground v.1.15,2013-09-16 05:20:00,
2013-09-16 01:35:00,83.2,83.2,29.90,East,83,5.0,7.0,100,0.00,,,0.01,Wunderground v.1.15,2013-09-16 05:35:00,
2013-09-16 01:45:00,83.2,83.2,29.90,NE,56,6.0,7.0,100,0.00,,,0.01,Wunderground v.1.15,2013-09-16 05:45:00,
2013-09-16 01:50:00,83.0,83.0,29.90,ENE,71,6.0,6.0,100,0.00,,,0.01,Wunderground v.1.15,2013-09-16 05:50:00,
2013-09-16 02:00:00,83.0,83.0,29.89,ENE,66,5.0,11.0,100,0.00,,,0.01,Wunderground v.1.15,2013-09-16 06:00:00,
2013-09-16 02:10:00,83.0,83.0,29.89,NE,52,7.0,7.0,100,0.00,,,0.01,Wunderground v.1.15,2013-09-16 06:10:00,
2013-09-16 02:20:00,82.8,82.8,29.88,ENE,65,6.0,7.0,100,0.00,,,0.01,Wunderground v.1.15,2013-09-16 06:20:00,
2013-09-16 02:30:00,82.8,82.8,29.88,NE,54,6.0,6.0,100,0.00,,,0.01,Wunderground v.1.15,2013-09-16 06:30:00,
2013-09-16 02:35:00,82.8,82.8,29.88,NE,55,7.0,10.0,100,0.00,,,0.01,Wunderground v.1.15,2013-09-16 06:35:00,
2013-09-16 02:45:00,82.8,82.8,29.88,ENE,64,6.0,9.0,100,0.00,,,0.01,Wunderground v.1.15,2013-09-16 06:45:00,
2013-09-16 02:50:00,82.8,82.8,29.88,ENE,59,4.0,8.0,100,0.00,,,0.01,Wunderground v.1.15,2013-09-16 06:50:00,
2013-09-16 03:00:00,82.8,82.8,29.87,ENE,66,6.0,8.0,100,0.00,,,0.01,Wunderground v.1.15,2013-09-16 07:00:00,
2013-09-16 03:10:00,82.8,82.8,29.87,ENE,69,6.0,9.0,100,0.00,,,0.01,Wunderground v.1.15,2013-09-16 07:10:00,
2013-09-16 03:15:00,82.8,82.8,29.88,ENE,71,6.0,9.0,100,0.00,,,0.01,Wunderground v.1.15,2013-09-16 07:15:00,
2013-09-16 03:25:00,83.0,83.0,29.88,ENE,75,4.0,7.0,100,0.00,,,0.01,Wunderground v.1.15,2013-09-16 07:25:00,
2013-09-16 03:35:00,83.0,83.0,29.88,ENE,64,7.0,10.0,100,0.00,,,0.01,Wunderground v.1.15,2013-09-16 07:35:00,
2013-09-16 03:45:00,83.2,83.2,29.87,ENE,76,7.0,7.0,100,0.00,,,0.01,Wunderground v.1.15,2013-09-16 07:45:00,
2013-09-16 03:55:00,83.2,83.2,29.87,NE,48,7.0,11.0,100,0.00,,,0.01,Wunderground v.1.15,2013-09-16 07:55:00,
2013-09-16 04:00:00,83.0,83.0,29.87,East,90,10.0,12.0,100,0.00,,,0.01,Wunderground v.1.15,2013-09-16 08:00:00,
2013-09-16 04:10:00,81.4,81.4,29.87,East,100,9.0,9.0,100,0.00,,,0.01,Wunderground v.1.15,2013-09-16 08:10:00,
2013-09-16 04:15:00,80.7,80.7,29.86,East,97,8.0,9.0,100,0.00,,,0.01,Wunderground v.1.15,2013-09-16 08:15:00,
2013-09-16 04:25:00,80.9,80.9,29.86,East,79,7.0,9.0,100,0.00,,,0.01,Wunderground v.1.15,2013-09-16 08:25:00,
2013-09-16 04:30:00,81.2,81.2,29.84,ENE,64,6.0,8.0,100,0.00,,,0.01,Wunderground v.1.15,2013-09-16 08:30:00,
2013-09-16 04:40:00,81.4,81.4,29.84,NE,55,5.0,5.0,100,0.00,,,0.01,Wunderground v.1.15,2013-09-16 08:40:00,
2013-09-16 04:45:00,82.0,82.0,29.84,NE,52,5.0,5.0,100,0.00,,,0.01,Wunderground v.1.15,2013-09-16 08:45:00,
2013-09-16 04:55:00,82.0,82.0,29.84,ENE,62,7.0,11.0,100,0.00,,,0.01,Wunderground v.1.15,2013-09-16 08:55:00,
2013-09-16 05:00:00,82.0,82.0,29.84,ENE,64,8.0,8.0,100,0.00,,,0.01,Wunderground v.1.15,2013-09-16 09:00:00,
2013-09-16 05:10:00,82.2,82.2,29.84,East,85,8.0,8.0,100,0.00,,,0.01,Wunderground v.1.15,2013-09-16 09:10:00,
2013-09-16 05:15:00,82.2,82.2,29.84,ENE,68,9.0,11.0,100,0.00,,,0.01,Wunderground v.1.15,2013-09-16 09:15:00,
2013-09-16 05:20:00,82.2,82.2,29.84,ESE,103,9.0,9.0,100,0.00,,,0.01,Wunderground v.1.15,2013-09-16 09:20:00,
2013-09-16 05:30:00,82.4,82.4,29.85,ENE,68,7.0,7.0,100,0.00,,,0.01,Wunderground v.1.15,2013-09-16 09:30:00,
2013-09-16 05:40:00,82.6,82.6,29.85,ENE,71,5.0,6.0,100,0.00,,,0.01,Wunderground v.1.15,2013-09-16 09:40:00,
2013-09-16 05:50:00,82.8,82.8,29.87,ENE,61,6.0,7.0,100,0.00,,,0.01,Wunderground v.1.15,2013-09-16 09:50:00,
2013-09-16 05:55:00,82.8,82.8,29.87,ENE,69,5.0,7.0,100,0.00,,,0.01,Wunderground v.1.15,2013-09-16 09:55:00,
2013-09-16 06:05:00,82.6,82.6,29.87,ENE,69,6.0,11.0,100,0.00,,,0.01,Wunderground v.1.15,2013-09-16 10:05:00,
2013-09-16 06:15:00,82.4,82.4,29.87,East,88,6.0,11.0,100,0.00,,,0.01,Wunderground v.1.15,2013-09-16 10:15:00,
2013-09-16 06:25:00,82.4,82.4,29.87,NE,49,5.0,10.0,100,0.00,,,0.01,Wunderground v.1.15,2013-09-16 10:25:00,
2013-09-16 06:30:00,82.6,82.6,29.89,NE,55,6.0,6.0,100,0.00,,,0.01,Wunderground v.1.15,2013-09-16 10:30:00,
2013-09-16 06:40:00,82.6,82.6,29.89,NE,54,5.0,6.0,100,0.00,,,0.01,Wunderground v.1.15,2013-09-16 10:40:00,
2013-09-16 06:45:00,82.8,82.8,29.89,ENE,73,4.0,6.0,100,0.00,,,0.01,Wunderground v.1.15,2013-09-16 10:45:00,
2013-09-16 06:55:00,82.8,82.8,29.89,ENE,59,4.0,4.0,100,0.00,,,0.01,Wunderground v.1.15,2013-09-16 10:55:00,
2013-09-16 07:05:00,82.8,82.8,29.89,NE,52,4.0,5.0,100,0.00,,,0.01,Wunderground v.1.15,2013-09-16 11:05:00,
2013-09-16 07:15:00,82.8,82.8,29.89,East,93,3.0,4.0,100,0.00,,,0.01,Wunderground v.1.15,2013-09-16 11:15:00,
2013-09-16 07:20:00,82.8,82.8,29.89,East,79,3.0,5.0,100,0.00,,,0.01,Wunderground v.1.15,2013-09-16 11:20:00,
2013-09-16 07:30:00,83.0,83.0,29.89,NE,55,6.0,6.0,100,0.00,,,0.01,Wunderground v.1.15,2013-09-16 11:30:00,
2013-09-16 07:35:00,83.0,83.0,29.89,ENE,72,4.0,6.0,100,0.00,,,0.01,Wunderground v.1.15,2013-09-16 11:35:00,
2013-09-16 07:45:00,83.0,83.0,29.89,ENE,76,4.0,4.0,100,0.00,,,0.01,Wunderground v.1.15,2013-09-16 11:45:00,
2013-09-16 07:50:00,83.2,83.2,29.89,ESE,107,4.0,4.0,100,0.00,,,0.01,Wunderground v.1.15,2013-09-16 11:50:00,
2013-09-16 08:00:00,83.2,83.2,29.89,NE,54,5.0,6.0,100,0.00,,,0.01,Wunderground v.1.15,2013-09-16 12:00:00,
2013-09-16 08:10:00,83.0,83.0,29.89,NE,52,7.0,7.0,100,0.00,,,0.01,Wunderground v.1.15,2013-09-16 12:10:00,
2013-09-16 08:20:00,82.8,82.8,29.89,ENE,64,5.0,6.0,100,0.00,,,0.01,Wunderground v.1.15,2013-09-16 12:20:00,
2013-09-16 08:25:00,82.4,82.4,29.89,East,92,6.0,11.0,100,0.00,,,0.01,Wunderground v.1.15,2013-09-16 12:25:00,
2013-09-16 08:35:00,77.0,77.0,29.91,SE,140,16.0,22.0,100,2.53,,,0.06,Wunderground v.1.15,2013-09-16 12:35:00,
2013-09-16 08:45:00,75.3,75.3,29.90,SE,133,9.0,15.0,100,0.45,,,0.26,Wunderground v.1.15,2013-09-16 12:45:00,
2013-09-16 08:50:00,74.9,74.9,29.90,SE,141,3.0,3.0,100,0.19,,,0.27,Wunderground v.1.15,2013-09-16 12:50:00,
2013-09-16 09:00:00,76.1,76.1,29.91,ENE,61,1.0,1.0,100,0.07,,,0.28,Wunderground v.1.15,2013-09-16 13:00:00,
2013-09-16 09:10:00,76.8,76.8,29.91,ENE,75,4.0,4.0,100,0.00,,,0.28,Wunderground v.1.15,2013-09-16 13:10:00,
2013-09-16 09:15:00,76.8,76.8,29.90,ESE,114,4.0,4.0,100,0.00,,,0.28,Wunderground v.1.15,2013-09-16 13:15:00,
2013-09-16 09:25:00,76.8,76.8,29.90,East,97,3.0,4.0,100,0.00,,,0.28,Wunderground v.1.15,2013-09-16 13:25:00,
2013-09-16 09:30:00,77.2,77.2,29.91,East,88,2.0,6.0,100,0.00,,,0.29,Wunderground v.1.15,2013-09-16 13:30:00,
2013-09-16 09:40:00,77.7,77.7,29.91,East,95,3.0,6.0,100,0.04,,,0.30,Wunderground v.1.15,2013-09-16 13:40:00,
2013-09-16 09:45:00,77.7,77.7,29.92,East,82,2.0,6.0,100,0.04,,,0.30,Wunderground v.1.15,2013-09-16 13:45:00,
2013-09-16 09:55:00,78.1,78.1,29.92,East,86,2.0,2.0,100,0.05,,,0.31,Wunderground v.1.15,2013-09-16 13:55:00,
2013-09-16 10:00:00,78.1,78.1,29.93,East,92,1.0,1.0,100,0.05,,,0.31,Wunderground v.1.15,2013-09-16 14:00:00,
2013-09-16 10:10:00,78.3,78.3,29.93,East,95,2.0,2.0,100,0.00,,,0.31,Wunderground v.1.15,2013-09-16 14:10:00,
2013-09-16 10:20:00,78.8,78.8,29.92,East,83,2.0,2.0,100,0.00,,,0.31,Wunderground v.1.15,2013-09-16 14:20:00,
2013-09-16 10:25:00,79.0,79.0,29.92,ESE,109,2.0,2.0,100,0.00,,,0.31,Wunderground v.1.15,2013-09-16 14:25:00,
2013-09-16 10:35:00,79.0,79.0,29.94,East,80,2.0,3.0,100,0.00,,,0.31,Wunderground v.1.15,2013-09-16 14:35:00,
2013-09-16 10:45:00,78.6,78.6,29.95,NNE,25,2.0,3.0,100,0.00,,,0.31,Wunderground v.1.15,2013-09-16 14:45:00,
2013-09-16 10:50:00,78.3,78.3,29.95,NNE,20,4.0,5.0,100,0.00,,,0.31,Wunderground v.1.15,2013-09-16 14:50:00,
2013-09-16 11:00:00,77.6,77.6,29.97,NE,54,7.0,7.0,100,0.00,,,0.31,Wunderground v.1.15,2013-09-16 15:00:00,
2013-09-16 11:10:00,75.8,75.8,29.97,North,10,8.0,8.0,100,0.00,,,0.31,Wunderground v.1.15,2013-09-16 15:10:00,
2013-09-16 11:20:00,76.3,76.3,29.97,NE,49,6.0,7.0,100,0.00,,,0.31,Wunderground v.1.15,2013-09-16 15:20:00,
2013-09-16 11:25:00,76.7,76.7,29.97,NNE,17,5.0,7.0,100,0.00,,,0.31,Wunderground v.1.15,2013-09-16 15:25:00,
2013-09-16 11:35:00,76.7,76.7,29.95,ENE,61,4.0,4.0,100,0.00,,,0.31,Wunderground v.1.15,2013-09-16 15:35:00,
2013-09-16 11:45:00,77.0,77.0,29.95,East,92,6.0,11.0,100,0.00,,,0.31,Wunderground v.1.15,2013-09-16 15:45:00,
2013-09-16 11:55:00,77.4,77.4,29.95,ENE,71,11.0,13.0,100,0.00,,,0.31,Wunderground v.1.15,2013-09-16 15:55:00,
2013-09-16 12:00:00,77.9,77.9,29.96,NE,40,11.0,11.0,100,0.00,,,0.31,Wunderground v.1.15,2013-09-16 16:00:00,
2013-09-16 12:10:00,77.0,77.0,29.96,NE,49,9.0,9.0,100,0.14,,,0.33,Wunderground v.1.15,2013-09-16 16:10:00,
2013-09-16 12:15:00,75.6,75.6,29.97,East,83,8.0,9.0,100,0.77,,,0.38,Wunderground v.1.15,2013-09-16 16:15:00,
2013-09-16 12:25:00,75.4,75.4,29.97,East,88,5.0,6.0,100,0.16,,,0.41,Wunderground v.1.15,2013-09-16 16:25:00,
2013-09-16 12:35:00,75.4,75.4,29.98,NE,51,6.0,10.0,100,0.12,,,0.43,Wunderground v.1.15,2013-09-16 16:35:00,
2013-09-16 12:45:00,74.9,74.9,29.97,East,97,10.0,13.0,100,0.27,,,0.48,Wunderground v.1.15,2013-09-16 16:45:00,
2013-09-16 12:50:00,74.7,74.7,29.97,NE,47,10.0,10.0,100,0.17,,,0.50,Wunderground v.1.15,2013-09-16 16:50:00,
2013-09-16 13:00:00,74.6,74.6,29.94,East,80,11.0,12.0,100,0.10,,,0.52,Wunderground v.1.15,2013-09-16 17:00:00,
2013-09-16 13:05:00,74.4,74.4,29.94,East,82,12.0,13.0,100,0.10,,,0.52,Wunderground v.1.15,2013-09-16 17:05:00,
2013-09-16 13:15:00,74.4,74.4,29.93,NE,48,9.0,11.0,100,0.05,,,0.53,Wunderground v.1.15,2013-09-16 17:15:00,
2013-09-16 13:25:00,74.6,74.6,29.93,NNE,32,3.0,6.0,100,0.11,,,0.54,Wunderground v.1.15,2013-09-16 17:25:00,
2013-09-16 13:35:00,74.0,74.0,29.91,NE,48,2.0,3.0,100,0.06,,,0.55,Wunderground v.1.15,2013-09-16 17:35:00,
2013-09-16 13:40:00,74.4,74.4,29.91,NE,51,0.0,0.0,100,0.04,,,0.55,Wunderground v.1.15,2013-09-16 17:40:00,
2013-09-16 13:50:00,74.6,74.6,29.91,ENE,64,3.0,3.0,100,0.00,,,0.56,Wunderground v.1.15,2013-09-16 17:50:00,
2013-09-16 13:55:00,74.6,74.6,29.91,ENE,62,2.0,3.0,100,0.00,,,0.56,Wunderground v.1.15,2013-09-16 17:55:00,
2013-09-16 14:05:00,75.1,75.1,29.89,NE,52,1.0,5.0,100,0.00,,,0.56,Wunderground v.1.15,2013-09-16 18:05:00,
2013-09-16 14:10:00,75.4,75.4,29.89,NE,54,1.0,1.0,100,0.00,,,0.56,Wunderground v.1.15,2013-09-16 18:10:00,
2013-09-16 14:20:00,75.6,75.6,29.88,ENE,73,4.0,4.0,100,0.00,,,0.56,Wunderground v.1.15,2013-09-16 18:20:00,
2013-09-16 14:30:00,76.5,76.5,29.87,NE,48,7.0,8.0,100,0.00,,,0.56,Wunderground v.1.15,2013-09-16 18:30:00,
2013-09-16 14:35:00,76.5,76.5,29.87,NE,54,8.0,17.0,100,0.00,,,0.56,Wunderground v.1.15,2013-09-16 18:35:00,
2013-09-16 14:45:00,77.4,77.4,29.85,ENE,68,9.0,12.0,100,0.00,,,0.56,Wunderground v.1.15,2013-09-16 18:45:00,
2013-09-16 14:55:00,77.7,77.7,29.85,ENE,69,8.0,8.0,100,0.00,,,0.56,Wunderground v.1.15,2013-09-16 18:55:00,
2013-09-16 15:00:00,78.1,78.1,29.85,ENE,59,7.0,7.0,100,0.00,,,0.56,Wunderground v.1.15,2013-09-16 19:00:00,
2013-09-16 15:10:00,78.5,78.5,29.85,ESE,107,6.0,12.0,100,0.00,,,0.56,Wunderground v.1.15,2013-09-16 19:10:00,
2013-09-16 15:15:00,78.8,78.8,29.84,ENE,69,6.0,12.0,100,0.00,,,0.56,Wunderground v.1.15,2013-09-16 19:15:00,
2013-09-16 15:25:00,79.4,79.4,29.84,NE,54,6.0,6.0,100,0.00,,,0.56,Wunderground v.1.15,2013-09-16 19:25:00,
2013-09-16 15:35:00,79.4,79.4,29.84,ENE,62,4.0,5.0,100,0.00,,,0.56,Wunderground v.1.15,2013-09-16 19:35:00,
2013-09-16 15:45:00,79.9,79.9,29.84,ENE,64,7.0,10.0,100,0.00,,,0.56,Wunderground v.1.15,2013-09-16 19:45:00,
2013-09-16 15:50:00,79.9,79.9,29.84,ENE,62,7.0,7.0,100,0.00,,,0.56,Wunderground v.1.15,2013-09-16 19:50:00,
2013-09-16 16:00:00,79.9,79.9,29.84,East,80,5.0,5.0,100,0.00,,,0.56,Wunderground v.1.15,2013-09-16 20:00:00,
2013-09-16 16:10:00,80.3,80.3,29.84,ENE,58,5.0,5.0,100,0.00,,,0.56,Wunderground v.1.15,2013-09-16 20:10:00,
2013-09-16 16:15:00,80.3,80.3,29.84,ENE,62,6.0,9.0,100,0.00,,,0.56,Wunderground v.1.15,2013-09-16 20:15:00,
2013-09-16 16:25:00,80.3,80.3,29.84,ENE,62,5.0,8.0,100,0.00,,,0.56,Wunderground v.1.15,2013-09-16 20:25:00,
2013-09-16 16:35:00,80.3,80.3,29.84,ENE,59,2.0,3.0,100,0.00,,,0.56,Wunderground v.1.15,2013-09-16 20:35:00,
2013-09-16 16:40:00,80.3,80.3,29.84,ENE,58,2.0,3.0,100,0.00,,,0.56,Wunderground v.1.15,2013-09-16 20:40:00,
2013-09-16 16:50:00,80.3,80.3,29.84,NE,56,1.0,1.0,100,0.00,,,0.56,Wunderground v.1.15,2013-09-16 20:50:00,
2013-09-16 16:55:00,80.1,80.1,29.84,NE,35,1.0,1.0,100,0.00,,,0.56,Wunderground v.1.15,2013-09-16 20:55:00,
2013-09-16 17:05:00,80.1,80.1,29.84,NNE,32,1.0,5.0,100,0.00,,,0.56,Wunderground v.1.15,2013-09-16 21:05:00,
2013-09-16 17:10:00,79.9,79.9,29.84,ENE,62,1.0,1.0,100,0.00,,,0.56,Wunderground v.1.15,2013-09-16 21:10:00,
2013-09-16 17:20:00,79.9,79.9,29.84,NE,47,1.0,1.0,100,0.00,,,0.56,Wunderground v.1.15,2013-09-16 21:20:00,
2013-09-16 17:30:00,79.9,79.9,29.84,NE,54,3.0,3.0,100,0.00,,,0.56,Wunderground v.1.15,2013-09-16 21:30:00,
2013-09-16 17:35:00,79.9,79.9,29.84,NE,52,3.0,3.0,100,0.00,,,0.56,Wunderground v.1.15,2013-09-16 21:35:00,
2013-09-16 17:45:00,80.3,80.3,29.85,NE,52,1.0,1.0,100,0.00,,,0.56,Wunderground v.1.15,2013-09-16 21:45:00,
2013-09-16 17:50:00,80.3,80.3,29.85,NE,49,1.0,5.0,100,0.00,,,0.56,Wunderground v.1.15,2013-09-16 21:50:00,
2013-09-16 18:00:00,80.5,80.5,29.84,NE,49,0.0,0.0,100,0.00,,,0.56,Wunderground v.1.15,2013-09-16 22:00:00,
2013-09-16 18:10:00,80.3,80.3,29.84,NE,45,2.0,4.0,100,0.00,,,0.56,Wunderground v.1.15,2013-09-16 22:10:00,
2013-09-16 18:15:00,80.1,80.1,29.85,NE,44,2.0,4.0,100,0.00,,,0.56,Wunderground v.1.15,2013-09-16 22:15:00,
2013-09-16 18:25:00,80.1,80.1,29.85,NE,44,0.0,1.0,100,0.00,,,0.56,Wunderground v.1.15,2013-09-16 22:25:00,
2013-09-16 18:30:00,80.1,80.1,29.85,NE,44,0.0,0.0,100,0.00,,,0.56,Wunderground v.1.15,2013-09-16 22:30:00,
2013-09-16 18:40:00,80.3,80.3,29.85,NE,44,0.0,3.0,100,0.00,,,0.56,Wunderground v.1.15,2013-09-16 22:40:00,
2013-09-16 18:45:00,80.3,80.3,29.85,NE,44,1.0,3.0,100,0.00,,,0.56,Wunderground v.1.15,2013-09-16 22:45:00,
2013-09-16 18:55:00,80.3,80.3,29.85,NE,45,1.0,4.0,100,0.00,,,0.56,Wunderground v.1.15,2013-09-16 22:55:00,
2013-09-16 19:00:00,80.3,80.3,29.86,NE,44,1.0,1.0,100,0.00,,,0.56,Wunderground v.1.15,2013-09-16 23:00:00,
2013-09-16 19:10:00,80.3,80.3,29.86,North,8,2.0,5.0,100,0.00,,,0.56,Wunderground v.1.15,2013-09-16 23:10:00,
2013-09-16 19:20:00,79.8,79.8,29.87,NNE,27,4.0,4.0,100,0.00,,,0.56,Wunderground v.1.15,2013-09-16 23:20:00,
2013-09-16 19:25:00,79.4,79.4,29.87,North,6,4.0,4.0,100,0.00,,,0.56,Wunderground v.1.15,2013-09-16 23:25:00,
2013-09-16 19:35:00,79.2,79.2,29.87,NNE,21,4.0,6.0,100,0.00,,,0.56,Wunderground v.1.15,2013-09-16 23:35:00,
2013-09-16 19:45:00,79.0,79.0,29.88,NNE,17,3.0,4.0,100,0.00,,,0.56,Wunderground v.1.15,2013-09-16 23:45:00,
2013-09-16 19:55:00,79.2,79.2,29.88,NNE,16,2.0,3.0,100,0.00,,,0.56,Wunderground v.1.15,2013-09-16 23:55:00,
2013-09-16 20:00:00,79.2,79.2,29.88,NNE,17,2.0,5.0,100,0.00,,,0.56,Wunderground v.1.15,2013-09-17 00:00:00,
2013-09-16 20:10:00,79.2,79.2,29.88,NE,47,2.0,3.0,100,0.00,,,0.56,Wunderground v.1.15,2013-09-17 00:10:00,
2013-09-16 20:20:00,79.4,79.4,29.89,NNE,21,3.0,3.0,100,0.00,,,0.56,Wunderground v.1.15,2013-09-17 00:20:00,
2013-09-16 20:25:00,79.4,79.4,29.89,NNE,13,2.0,3.0,100,0.00,,,0.56,Wunderground v.1.15,2013-09-17 00:25:00,
2013-09-16 20:35:00,79.6,79.6,29.89,NNE,18,2.0,7.0,100,0.00,,,0.56,Wunderground v.1.15,2013-09-17 00:35:00,
2013-09-16 20:40:00,79.6,79.6,29.89,NNE,16,2.0,2.0,100,0.00,,,0.56,Wunderground v.1.15,2013-09-17 00:40:00,
2013-09-16 20:50:00,79.6,79.6,29.89,NNE,14,3.0,8.0,100,0.00,,,0.56,Wunderground v.1.15,2013-09-17 00:50:00,
2013-09-16 21:00:00,79.6,79.6,29.88,ENE,64,2.0,2.0,100,0.00,,,0.56,Wunderground v.1.15,2013-09-17 01:00:00,
2013-09-16 21:05:00,79.4,79.4,29.88,NE,40,1.0,2.0,100,0.00,,,0.56,Wunderground v.1.15,2013-09-17 01:05:00,
2013-09-16 21:15:00,79.6,79.6,29.89,NNE,24,3.0,3.0,100,0.00,,,0.56,Wunderground v.1.15,2013-09-17 01:15:00,
2013-09-16 21:25:00,79.6,79.6,29.89,NNE,25,2.0,5.0,100,0.00,,,0.56,Wunderground v.1.15,2013-09-17 01:25:00,
2013-09-16 21:30:00,79.6,79.6,29.88,NNE,30,2.0,3.0,100,0.00,,,0.56,Wunderground v.1.15,2013-09-17 01:30:00,
2013-09-16 21:40:00,79.6,79.6,29.88,NNE,30,1.0,1.0,100,0.00,,,0.56,Wunderground v.1.15,2013-09-17 01:40:00,
2013-09-16 21:45:00,79.4,79.4,29.88,NNE,18,2.0,2.0,100,0.00,,,0.56,Wunderground v.1.15,2013-09-17 01:45:00,
2013-09-16 21:50:00,79.4,79.4,29.88,NE,34,2.0,2.0,100,0.00,,,0.56,Wunderground v.1.15,2013-09-17 01:50:00,
2013-09-16 22:00:00,79.4,79.4,29.88,NNE,24,1.0,2.0,100,0.00,,,0.56,Wunderground v.1.15,2013-09-17 02:00:00,
2013-09-16 22:05:00,79.4,79.4,29.88,NE,52,2.0,2.0,100,0.00,,,0.56,Wunderground v.1.15,2013-09-17 02:05:00,
2013-09-16 22:15:00,79.4,79.4,29.88,ENE,65,2.0,2.0,100,0.00,,,0.56,Wunderground v.1.15,2013-09-17 02:15:00,
2013-09-16 22:20:00,79.6,79.6,29.88,ENE,64,1.0,1.0,100,0.00,,,0.56,Wunderground v.1.15,2013-09-17 02:20:00,
2013-09-16 22:30:00,79.6,79.6,29.87,NE,49,2.0,2.0,100,0.00,,,0.56,Wunderground v.1.15,2013-09-17 02:30:00,
2013-09-16 22:35:00,79.6,79.6,29.87,NE,54,1.0,2.0,100,0.00,,,0.56,Wunderground v.1.15,2013-09-17 02:35:00,
2013-09-16 22:45:00,79.6,79.6,29.88,NE,48,1.0,3.0,100,0.00,,,0.56,Wunderground v.1.15,2013-09-17 02:45:00,
2013-09-16 22:50:00,79.6,79.6,29.88,NE,47,1.0,2.0,100,0.00,,,0.56,Wunderground v.1.15,2013-09-17 02:50:00,
2013-09-16 23:00:00,79.4,79.4,29.88,NE,44,2.0,2.0,100,0.00,,,0.56,Wunderground v.1.15,2013-09-17 03:00:00,
2013-09-16 23:05:00,79.4,79.4,29.88,NE,35,2.0,2.0,100,0.00,,,0.56,Wunderground v.1.15,2013-09-17 03:05:00,
2013-09-16 23:15:00,79.4,79.4,29.88,NNE,32,1.0,1.0,100,0.00,,,0.56,Wunderground v.1.15,2013-09-17 03:15:00,
2013-09-16 23:25:00,79.4,79.4,29.88,NE,49,1.0,2.0,100,0.00,,,0.56,Wunderground v.1.15,2013-09-17 03:25:00,
2013-09-16 23:35:00,79.6,79.6,29.87,NE,45,2.0,4.0,100,0.00,,,0.56,Wunderground v.1.15,2013-09-17 03:35:00,
2013-09-16 23:45:00,79.6,79.6,29.87,NE,49,1.0,3.0,100,0.00,,,0.56,Wunderground v.1.15,2013-09-17 03:45:00,
2013-09-16 23:55:00,79.8,79.8,29.87,NE,55,1.0,5.0,100,0.00,,,0.56,Wunderground v.1.15,2013-09-17 03:55:00,